Time;durP1;ratioP1;P1;durP2;ratioP2;P2;SDS_P1;SDS_P2;PMS_P1;PMS_P2;Temp;Humidity;BMP_temperature;BMP_pressure;BME280_temperature;BME280_humidity;BME280_pressure;Samples;Min_cycle;Max_cycle;Signal;HPM_P1;HPM_P2
2021/07/24 00:01:14;;;;;;;8.77;6.50;;;;;;;25.79;55.61;100610.50;5037302;28;20524;-72
2021/07/24 00:03:59;;;;;;;11.43;7.53;;;;;;;25.77;55.85;100615.69;5037281;28;20048;-71
2021/07/24 00:06:45;;;;;;;10.68;6.93;;;;;;;25.74;55.91;100610.97;5035985;28;20056;-72
2021/07/24 00:09:31;;;;;;;14.73;7.18;;;;;;;25.75;55.57;100609.75;5033555;28;20048;-72
2021/07/24 00:12:15;;;;;;;11.82;6.78;;;;;;;25.72;55.69;100605.00;5033440;28;20523;-72
2021/07/24 00:15:00;;;;;;;11.13;6.72;;;;;;;25.74;55.83;100602.59;5034071;28;20053;-69
2021/07/24 00:17:45;;;;;;;10.55;6.65;;;;;;;25.77;55.54;100596.19;5025243;28;20048;-71
2021/07/24 00:20:30;;;;;;;9.88;6.88;;;;;;;25.91;55.48;100607.88;5038228;28;20044;-72
2021/07/24 00:23:15;;;;;;;12.48;8.32;;;;;;;25.94;55.10;100600.69;5033992;28;20536;-72
2021/07/24 00:26:01;;;;;;;15.65;7.72;;;;;;;25.90;55.09;100589.63;5031440;28;20060;-72
2021/07/24 00:28:46;;;;;;;12.85;7.95;;;;;;;25.94;54.92;100595.13;5032422;28;20052;-72
2021/07/24 00:31:31;;;;;;;10.98;7.25;;;;;;;25.88;54.85;100585.66;5035218;28;20116;-72
2021/07/24 00:34:18;;;;;;;11.13;7.72;;;;;;;25.85;55.13;100580.94;5026098;28;20041;-72
2021/07/24 00:37:04;;;;;;;10.63;7.28;;;;;;;25.85;55.30;100583.72;5033554;28;20048;-71
2021/07/24 00:39:48;;;;;;;12.00;8.38;;;;;;;25.85;55.52;100576.13;5036286;28;20044;-71
2021/07/24 00:42:35;;;;;;;12.38;7.55;;;;;;;25.80;55.59;100565.47;5031505;28;20068;-72
2021/07/24 00:45:20;;;;;;;15.43;7.75;;;;;;;25.75;55.96;100563.16;5034783;28;20064;-72
2021/07/24 00:48:06;;;;;;;9.75;7.50;;;;;;;25.72;56.06;100555.66;5032921;28;20048;-72
2021/07/24 00:51:03;;;;;;;12.35;8.02;;;;;;;25.62;56.45;100545.47;5033263;28;20037;-71
2021/07/24 00:53:48;;;;;;;13.27;8.00;;;;;;;25.61;56.32;100534.75;5034480;28;20056;-74
2021/07/24 00:56:36;;;;;;;12.25;7.55;;;;;;;25.59;56.60;100531.59;5032820;28;20044;-71
2021/07/24 00:59:21;;;;;;;12.45;7.75;;;;;;;25.57;56.91;100531.22;5032941;28;20056;-73
2021/07/24 01:02:06;;;;;;;15.85;8.18;;;;;;;25.59;56.61;100526.03;5036860;28;20060;-70
2021/07/24 01:04:51;;;;;;;13.18;8.40;;;;;;;25.54;56.79;100533.63;5032658;28;20048;-71
2021/07/24 01:07:40;;;;;;;14.07;8.32;;;;;;;25.55;56.95;100524.09;5033267;28;20518;-70
2021/07/24 01:10:26;;;;;;;11.63;7.45;;;;;;;25.53;56.77;100523.69;5036850;28;20774;-71
2021/07/24 01:13:16;;;;;;;11.98;7.70;;;;;;;25.53;57.04;100520.13;5033976;28;20143;-71
2021/07/24 01:16:02;;;;;;;12.25;8.90;;;;;;;25.55;56.83;100523.28;5034983;28;20060;-72
2021/07/24 01:18:51;;;;;;;12.40;8.20;;;;;;;25.53;56.67;100517.34;5028568;28;20048;-71
2021/07/24 01:21:48;;;;;;;14.80;8.52;;;;;;;25.53;56.31;100509.00;5032450;28;20052;-72
2021/07/24 01:24:34;;;;;;;18.23;8.68;;;;;;;25.46;56.58;100498.75;5034969;28;20045;-72
2021/07/24 01:27:22;;;;;;;12.15;9.07;;;;;;;25.41;56.34;100499.22;5031410;28;20037;-72
2021/07/24 01:30:08;;;;;;;13.65;8.57;;;;;;;25.38;56.75;100502.84;5014614;28;20068;-71
2021/07/24 01:32:55;;;;;;;17.05;9.18;;;;;;;25.37;56.37;100509.63;5041476;28;20052;-70
2021/07/24 01:35:47;;;;;;;15.07;9.15;;;;;;;25.39;56.25;100498.06;5030900;28;20505;-71
2021/07/24 01:38:36;;;;;;;15.77;9.40;;;;;;;25.39;56.33;100503.66;5032991;28;20056;-71
2021/07/24 01:41:24;;;;;;;12.13;8.45;;;;;;;25.39;56.17;100500.88;5031802;28;20040;-71
2021/07/24 01:44:10;;;;;;;17.30;9.00;;;;;;;25.34;56.59;100506.91;5033725;28;20588;-71
2021/07/24 01:46:55;;;;;;;16.77;9.45;;;;;;;25.28;56.60;100514.94;5024350;28;20040;-71
2021/07/24 01:52:52;;;;;;;14.05;8.75;;;;;;;25.23;56.78;100503.50;5027726;28;20045;-72
2021/07/24 01:55:44;;;;;;;15.55;7.63;;;;;;;25.32;56.56;100510.09;5020076;28;20056;-71
2021/07/24 01:58:33;;;;;;;15.93;8.68;;;;;;;25.34;56.49;100507.69;5032311;28;20053;-70
2021/07/24 02:01:26;;;;;;;13.57;8.55;;;;;;;25.31;56.75;100508.53;5031605;28;20056;-70
2021/07/24 02:04:17;;;;;;;12.70;8.45;;;;;;;25.29;56.69;100515.72;5036699;28;20068;-71
2021/07/24 02:07:09;;;;;;;;;;;;;;;25.27;56.79;100509.78;5032531;28;20068;-71
2021/07/24 02:10:26;;;;;;;16.05;7.65;;;;;;;25.35;56.42;100509.25;5028493;28;19913;-71
2021/07/24 02:13:19;;;;;;;13.07;7.72;;;;;;;25.29;56.80;100504.59;5035522;28;20037;-72
2021/07/24 02:16:08;;;;;;;22.73;8.43;;;;;;;25.27;56.92;100501.44;5029285;28;20056;-71
2021/07/24 02:18:55;;;;;;;15.95;8.32;;;;;;;25.25;56.99;100490.72;5036429;28;20402;-73
2021/07/24 02:22:00;;;;;;;12.75;8.02;;;;;;;25.24;57.25;100500.28;5033836;28;20126;-70
2021/07/24 02:24:45;;;;;;;15.60;8.60;;;;;;;25.23;57.32;100498.72;5031073;28;20041;-71
2021/07/24 02:27:30;;;;;;;10.65;7.47;;;;;;;25.14;57.81;100515.16;5032915;28;20049;-70
2021/07/24 02:30:18;;;;;;;14.02;7.93;;;;;;;25.13;57.74;100522.72;5030041;28;20417;-70
2021/07/24 02:33:03;;;;;;;11.10;7.80;;;;;;;25.11;57.81;100519.53;5029997;28;20049;-70
2021/07/24 02:35:49;;;;;;;14.93;8.15;;;;;;;25.06;57.96;100508.09;5027839;28;20072;-71
2021/07/24 02:38:38;;;;;;;17.23;8.18;;;;;;;25.13;57.99;100508.00;5013180;28;20049;-69
2021/07/24 02:41:24;;;;;;;15.15;8.25;;;;;;;25.09;58.12;100513.59;5023929;28;20052;-70
2021/07/24 02:44:08;;;;;;;18.92;8.70;;;;;;;25.01;58.32;100503.00;5035278;28;20048;-70
2021/07/24 02:46:54;;;;;;;13.45;9.40;;;;;;;24.99;58.59;100497.06;5031450;28;20064;-70
2021/07/24 02:49:44;;;;;;;12.57;8.20;;;;;;;25.02;58.31;100499.00;5030652;28;20052;-69
2021/07/24 02:52:29;;;;;;;16.35;8.38;;;;;;;25.07;58.15;100510.47;5044496;28;20057;-69
2021/07/24 02:55:15;;;;;;;14.18;9.07;;;;;;;24.96;58.53;100509.81;5034054;28;20413;-69
2021/07/24 02:58:00;;;;;;;17.48;9.20;;;;;;;24.92;58.67;100514.66;5023146;28;20136;-70
2021/07/24 03:00:45;;;;;;;12.40;8.32;;;;;;;25.10;58.34;100525.53;5033198;28;20048;-69
2021/07/24 03:03:30;;;;;;;18.02;8.70;;;;;;;24.97;58.45;100513.38;5036504;28;20060;-69
2021/07/24 03:06:15;;;;;;;11.10;8.60;;;;;;;24.97;58.50;100514.19;5035142;28;20048;-70
2021/07/24 03:09:03;;;;;;;11.52;7.85;;;;;;;24.92;58.60;100508.28;5038958;28;20064;-70
2021/07/24 03:11:47;;;;;;;15.13;8.57;;;;;;;24.89;59.00;100509.13;5037048;28;20064;-70
2021/07/24 03:14:32;;;;;;;10.77;8.20;;;;;;;25.08;58.24;100512.03;5035254;28;20520;-70
2021/07/24 03:17:18;;;;;;;16.48;8.90;;;;;;;25.02;58.38;100513.72;5038531;28;20065;-70
2021/07/24 03:20:05;;;;;;;13.15;9.02;;;;;;;25.05;58.55;100509.28;5037247;28;20068;-70
2021/07/24 03:22:50;;;;;;;15.70;8.55;;;;;;;24.96;58.63;100503.47;5034734;28;20052;-70
2021/07/24 03:25:35;;;;;;;11.40;9.38;;;;;;;24.97;58.77;100505.03;5035665;28;20048;-70
2021/07/24 03:28:20;;;;;;;12.38;8.55;;;;;;;24.96;58.66;100509.03;5035194;28;20033;-70
2021/07/24 03:31:05;;;;;;;12.18;8.52;;;;;;;24.93;58.75;100498.75;5020657;28;20045;-72
2021/07/24 03:33:49;;;;;;;13.32;8.18;;;;;;;24.89;58.96;100498.78;5039409;28;20044;-70
2021/07/24 03:36:34;;;;;;;16.80;8.25;;;;;;;24.86;59.00;100499.59;5038117;28;20068;-70
2021/07/24 03:39:20;;;;;;;12.05;8.30;;;;;;;24.93;58.87;100487.63;5032423;28;20052;-71
2021/07/24 03:42:05;;;;;;;10.82;8.13;;;;;;;24.94;58.67;100491.97;5028434;28;20052;-70
2021/07/24 03:44:50;;;;;;;16.63;8.68;;;;;;;24.88;58.55;100486.09;5037994;28;20056;-70
2021/07/24 03:47:35;;;;;;;14.05;9.25;;;;;;;24.90;58.96;100480.09;5035121;28;20045;-73
2021/07/24 03:50:20;;;;;;;14.27;8.45;;;;;;;24.99;58.80;100488.72;5039553;28;20059;-73
2021/07/24 03:53:05;;;;;;;12.85;8.98;;;;;;;25.00;58.84;100498.63;5037268;28;20056;-73
2021/07/24 03:55:51;;;;;;;17.48;9.98;;;;;;;24.92;58.80;100497.16;5035655;28;20643;-73
2021/07/24 03:58:36;;;;;;;14.07;8.73;;;;;;;24.91;59.04;100493.59;5033060;28;20044;-72
2021/07/24 04:01:23;;;;;;;;;;;;;;;24.95;58.84;100483.19;5021052;28;20129;-71
2021/07/24 04:04:08;;;;;;;12.75;8.55;;;;;;;25.01;58.68;100491.88;5036229;28;19917;-71
2021/07/24 04:06:55;;;;;;;13.13;9.48;;;;;;;24.96;58.82;100498.69;5033773;28;20052;-73
2021/07/24 04:09:40;;;;;;;14.70;8.75;;;;;;;25.02;58.71;100485.88;5018253;28;20045;-71
2021/07/24 04:12:27;;;;;;;14.45;9.25;;;;;;;24.94;59.08;100466.94;5038209;28;20048;-69
2021/07/24 04:15:13;;;;;;;16.02;8.88;;;;;;;24.98;58.84;100467.66;5035313;28;20044;-70
2021/07/24 04:17:59;;;;;;;14.75;8.32;;;;;;;24.96;58.71;100467.28;5041183;28;20516;-72
2021/07/24 04:20:44;;;;;;;19.15;8.65;;;;;;;25.06;58.77;100463.56;5027153;28;20052;-72
2021/07/24 04:23:29;;;;;;;14.27;8.65;;;;;;;25.17;58.52;100466.97;5032856;28;20512;-72
2021/07/24 04:26:14;;;;;;;15.15;9.27;;;;;;;25.22;58.40;100463.72;5033673;28;20048;-72
2021/07/24 04:28:59;;;;;;;15.60;9.05;;;;;;;25.31;58.12;100468.75;5032103;28;20049;-72
2021/07/24 04:31:44;;;;;;;18.52;9.05;;;;;;;25.43;57.58;100460.63;5028565;28;20060;-70
2021/07/24 04:34:30;;;;;;;15.65;9.27;;;;;;;25.55;57.46;100471.16;5037848;28;20048;-71
2021/07/24 04:37:15;;;;;;;18.38;9.02;;;;;;;25.67;56.94;100478.13;5039993;28;20516;-70
2021/07/24 04:40:01;;;;;;;20.42;9.90;;;;;;;25.84;56.75;100490.19;5046381;28;20044;-70
2021/07/24 04:42:46;;;;;;;20.90;9.25;;;;;;;25.82;56.93;100485.03;5031203;28;20048;-71
2021/07/24 04:45:31;;;;;;;15.18;9.55;;;;;;;25.91;56.24;100484.47;5030935;28;20052;-72
2021/07/24 04:48:16;;;;;;;14.25;8.85;;;;;;;26.14;55.75;100492.03;5033080;28;20052;-71
2021/07/24 04:51:01;;;;;;;36.13;13.90;;;;;;;26.28;55.34;100492.59;5024155;28;20040;-70
2021/07/24 04:53:47;;;;;;;19.92;10.70;;;;;;;26.24;56.08;100491.88;5039216;28;20416;-71
2021/07/24 04:56:32;;;;;;;13.77;10.10;;;;;;;26.30;55.45;100494.97;5027371;28;20033;-71
2021/07/24 04:59:19;;;;;;;11.93;8.98;;;;;;;26.48;54.98;100489.00;5033899;28;20041;-71
2021/07/24 05:02:04;;;;;;;15.57;9.90;;;;;;;26.56;54.44;100491.25;5038587;28;20390;-71
2021/07/24 05:04:50;;;;;;;17.17;9.75;;;;;;;26.25;56.20;100481.50;5037127;28;20417;-72
2021/07/24 05:07:35;;;;;;;18.15;10.07;;;;;;;25.51;59.72;100489.13;5023273;28;20401;-71
2021/07/24 05:10:20;;;;;;;16.83;10.82;;;;;;;25.00;60.95;100487.50;5039371;28;20049;-72
2021/07/24 05:13:05;;;;;;;15.68;10.05;;;;;;;24.70;62.28;100483.50;5022131;28;20502;-71
2021/07/24 05:15:51;;;;;;;16.98;11.90;;;;;;;24.75;62.06;100484.25;5022662;28;20046;-72
2021/07/24 05:18:36;;;;;;;14.85;11.68;;;;;;;24.95;61.43;100485.19;5039580;28;20037;-72
2021/07/24 05:21:21;;;;;;;51.40;15.82;;;;;;;24.97;61.87;100482.78;5038861;28;20042;-72
2021/07/24 05:24:06;;;;;;;63.78;17.15;;;;;;;25.31;60.15;100497.38;5026950;28;20037;-72
2021/07/24 05:26:51;;;;;;;24.75;9.85;;;;;;;26.00;57.37;100498.69;5029844;28;20049;-71
2021/07/24 05:29:36;;;;;;;16.42;9.15;;;;;;;26.38;56.13;100490.81;5034124;28;20048;-72
2021/07/24 05:32:20;;;;;;;15.45;10.15;;;;;;;26.42;56.27;100499.88;5039439;28;20072;-71
2021/07/24 05:35:06;;;;;;;;;;;;;;;26.50;56.28;100492.19;5030578;28;20045;-73
2021/07/24 05:37:51;;;;;;;18.27;10.02;;;;;;;26.78;55.32;100497.94;5036924;28;19913;-72
2021/07/24 05:40:35;;;;;;;22.40;10.20;;;;;;;27.04;54.89;100510.16;5038634;28;20401;-71
2021/07/24 05:43:20;;;;;;;23.45;9.20;;;;;;;27.52;53.35;100506.69;5035991;28;20405;-72
2021/07/24 05:46:05;;;;;;;12.05;9.10;;;;;;;27.69;52.83;100506.69;5015496;28;20045;-72
2021/07/24 05:48:50;;;;;;;19.80;9.75;;;;;;;27.56;52.98;100512.19;5033141;28;20050;-72
2021/07/24 05:51:35;;;;;;;16.20;11.18;;;;;;;27.16;54.46;100506.72;5037604;28;20528;-73
2021/07/24 05:54:22;;;;;;;23.25;12.73;;;;;;;27.54;53.74;100504.25;5037342;28;20049;-72
2021/07/24 05:57:08;;;;;;;23.48;11.30;;;;;;;27.70;53.26;100520.22;5037228;28;20041;-72
2021/07/24 05:59:52;;;;;;;19.45;11.93;;;;;;;27.61;53.53;100520.84;5018937;28;20045;-71
2021/07/24 06:02:37;;;;;;;21.25;12.95;;;;;;;27.54;53.57;100520.22;5019334;28;20042;-72
2021/07/24 06:05:22;;;;;;;17.80;12.00;;;;;;;27.50;53.17;100513.94;5029241;28;20049;-74
2021/07/24 06:08:07;;;;;;;18.13;11.25;;;;;;;27.33;53.96;100515.13;5037977;28;20501;-70
2021/07/24 06:10:52;;;;;;;21.00;12.43;;;;;;;27.95;51.89;100520.38;5038036;28;20417;-72
2021/07/24 06:13:36;;;;;;;17.25;12.13;;;;;;;27.97;51.08;100519.94;5038679;28;20497;-71
2021/07/24 06:16:21;;;;;;;19.60;12.35;;;;;;;28.26;51.02;100517.22;5037391;28;20494;-72
2021/07/24 06:19:06;;;;;;;15.48;11.40;;;;;;;28.71;49.96;100517.13;5033405;28;20049;-72
2021/07/24 06:21:51;;;;;;;20.17;11.73;;;;;;;29.02;48.86;100509.84;5032497;28;20046;-72
2021/07/24 06:24:36;;;;;;;17.05;11.52;;;;;;;28.79;49.17;100507.34;5018627;28;20045;-71
2021/07/24 06:27:21;;;;;;;19.75;12.10;;;;;;;28.85;49.25;100500.72;5037355;28;20045;-70
2021/07/24 06:30:08;;;;;;;13.38;11.25;;;;;;;28.56;50.37;100504.78;5025205;28;20405;-74
2021/07/24 06:32:53;;;;;;;23.25;11.68;;;;;;;28.90;49.27;100511.38;5018629;28;20046;-71
2021/07/24 06:35:37;;;;;;;17.05;11.93;;;;;;;29.17;48.49;100521.38;5031049;28;20453;-70
2021/07/24 06:38:23;;;;;;;19.30;12.93;;;;;;;29.75;46.91;100533.94;5036792;28;20041;-71
2021/07/24 06:41:07;;;;;;;24.88;14.45;;;;;;;29.68;46.96;100527.78;5032923;28;20045;-70
2021/07/24 06:43:54;;;;;;;24.10;15.35;;;;;;;29.52;46.63;100528.69;5037696;28;20041;-71
2021/07/24 06:46:39;;;;;;;27.13;17.23;;;;;;;29.72;46.60;100529.22;5034876;28;20393;-71
2021/07/24 06:49:24;;;;;;;23.85;14.38;;;;;;;29.97;46.15;100533.28;5033403;28;20225;-71
2021/07/24 06:52:09;;;;;;;25.08;16.20;;;;;;;30.29;45.00;100527.31;5020265;28;20050;-73
2021/07/24 06:54:54;;;;;;;25.42;14.77;;;;;;;30.51;44.34;100516.94;5035194;28;20038;-73
2021/07/24 06:57:39;;;;;;;20.13;13.65;;;;;;;30.47;44.70;100523.91;5037073;28;20046;-73
2021/07/24 07:00:24;;;;;;;24.38;12.77;;;;;;;30.63;44.24;100523.69;5037114;28;20049;-72
2021/07/24 07:03:09;;;;;;;19.77;13.10;;;;;;;30.47;44.30;100523.91;5035115;28;20041;-73
2021/07/24 07:05:54;;;;;;;19.25;12.75;;;;;;;29.92;45.25;100536.66;5032040;28;20422;-73
2021/07/24 07:08:39;;;;;;;18.23;13.00;;;;;;;30.09;45.01;100524.03;5035973;28;20046;-73
2021/07/24 07:11:25;;;;;;;17.35;13.13;;;;;;;29.94;45.85;100515.31;5031114;28;20041;-73
2021/07/24 07:14:09;;;;;;;17.80;11.32;;;;;;;31.11;43.13;100518.72;5030993;28;20408;-72
2021/07/24 07:16:54;;;;;;;23.27;12.20;;;;;;;31.06;41.85;100522.91;5030284;28;20054;-72
2021/07/24 07:19:39;;;;;;;18.85;12.52;;;;;;;31.93;41.12;100519.00;5026125;28;20037;-73
2021/07/24 07:22:24;;;;;;;20.40;11.57;;;;;;;32.78;37.82;100510.41;5037622;28;20046;-73
2021/07/24 07:25:10;;;;;;;20.08;10.75;;;;;;;33.07;37.20;100513.44;5033533;28;20046;-70
2021/07/24 07:27:54;;;;;;;18.92;10.15;;;;;;;32.44;37.69;100500.28;5035698;28;20050;-72
2021/07/24 07:30:39;;;;;;;16.40;10.65;;;;;;;31.87;39.06;100501.94;5035873;28;20037;-71
2021/07/24 07:33:24;;;;;;;22.60;10.63;;;;;;;32.16;39.88;100496.66;5037757;28;20493;-73
2021/07/24 07:36:09;;;;;;;17.40;8.85;;;;;;;30.01;42.45;100491.84;5030872;28;20490;-73
2021/07/24 07:38:54;;;;;;;14.65;7.90;;;;;;;31.21;39.05;100490.19;5037555;28;20052;-72
2021/07/24 07:41:39;;;;;;;11.05;8.25;;;;;;;31.68;37.82;100497.53;5037256;28;20060;-71
2021/07/24 07:44:24;;;;;;;12.38;7.85;;;;;;;33.57;35.43;100494.16;5032321;28;20512;-73
2021/07/24 07:47:10;;;;;;;13.00;7.72;;;;;;;32.73;35.32;100494.13;5037366;28;20049;-72
2021/07/24 07:49:56;;;;;;;15.43;8.23;;;;;;;34.19;34.19;100504.72;5059617;28;20055;-70
2021/07/24 07:52:40;;;;;;;9.68;7.45;;;;;;;33.29;33.65;100501.16;5052565;28;20060;-72
2021/07/24 07:55:25;;;;;;;12.55;7.78;;;;;;;33.15;34.72;100482.09;5030595;28;20428;-73
2021/07/24 07:58:11;;;;;;;16.73;9.32;;;;;;;34.26;34.01;100482.53;5033072;28;20053;-72
2021/07/24 08:00:56;;;;;;;18.30;9.15;;;;;;;35.13;32.71;100477.41;5038149;28;20099;-72
2021/07/24 10:36:35;;;;;;;11.00;5.55;;;;;;;33.12;34.05;100353.44;5130005;27;20407;-70
2021/07/24 10:39:22;;;;;;;15.00;6.10;;;;;;;33.58;31.88;100360.31;5116847;28;20047;-69
2021/07/24 10:42:11;;;;;;;9.23;6.10;;;;;;;35.63;29.43;100404.56;5088156;22;20592;-79
2021/07/24 10:44:55;;;;;;;13.93;5.68;;;;;;;39.82;24.28;100434.25;5050277;28;20080;-81
2021/07/24 10:48:26;;;;;;;13.82;6.47;;;;;;;42.63;20.49;100443.78;5066774;28;20044;-79
2021/07/24 10:51:16;;;;;;;8.98;6.00;;;;;;;43.62;19.24;100449.03;5060993;28;20521;-80
2021/07/24 10:54:03;;;;;;;8.63;5.40;;;;;;;42.67;19.32;100432.78;5073641;28;20048;-78
2021/07/24 10:56:49;;;;;;;9.27;5.60;;;;;;;44.03;18.77;100424.72;5070332;28;20059;-81
2021/07/24 10:59:33;;;;;;;8.18;5.22;;;;;;;45.01;17.35;100430.59;5067928;28;20059;-79
2021/07/24 11:02:44;;;;;;;11.73;5.90;;;;;;;43.94;17.89;100419.44;5066716;28;20044;-81
2021/07/24 11:05:30;;;;;;;9.57;5.75;;;;;;;46.44;15.69;100426.13;5070393;28;20525;-80
2021/07/24 11:08:14;;;;;;;10.93;5.93;;;;;;;43.57;19.19;100424.13;5069219;28;20067;-82
2021/07/24 11:11:09;;;;;;;11.50;5.47;;;;;;;44.77;17.65;100422.41;5072464;28;20048;-83
2021/07/24 11:13:53;;;;;;;14.82;6.65;;;;;;;43.88;17.74;100414.63;5070397;28;20067;-83
2021/07/24 11:17:08;;;;;;;11.10;5.53;;;;;;;45.71;16.62;100422.66;5074819;28;20048;-81
2021/07/24 11:19:53;;;;;;;8.88;5.20;;;;;;;44.03;17.67;100410.38;5074870;28;20048;-82
2021/07/24 11:23:08;;;;;;;10.15;5.97;;;;;;;44.07;18.04;100408.69;5073043;28;20063;-83
2021/07/24 11:26:00;;;;;;;11.27;5.63;;;;;;;43.42;19.43;100412.44;5060180;28;20064;-79
2021/07/24 11:28:48;;;;;;;13.88;5.65;;;;;;;44.23;19.11;100427.59;5071387;28;20040;-80
2021/07/24 11:31:33;;;;;;;12.70;6.85;;;;;;;42.31;20.56;100418.06;5064943;28;20052;-80
2021/07/24 11:34:22;;;;;;;9.68;6.07;;;;;;;45.02;18.33;100423.53;5070246;28;20044;-81
2021/07/24 11:37:06;;;;;;;15.60;6.32;;;;;;;46.03;17.43;100430.81;5058020;28;20055;-82
2021/07/24 11:39:53;;;;;;;22.05;6.65;;;;;;;43.15;19.72;100414.53;5057846;28;20066;-81
2021/07/24 11:42:38;;;;;;;10.90;5.85;;;;;;;42.89;20.89;100414.47;5055166;28;20052;-84
2021/07/24 11:45:25;;;;;;;10.02;6.15;;;;;;;46.33;16.96;100424.38;5057126;28;20052;-83
2021/07/24 11:48:16;;;;;;;10.45;5.47;;;;;;;45.54;17.95;100420.28;5057141;28;20056;-83
2021/07/24 11:51:08;;;;;;;8.38;6.55;;;;;;;43.83;19.65;100412.63;5056366;28;20052;-83
2021/07/24 11:53:55;;;;;;;21.02;5.93;;;;;;;43.08;20.67;100413.09;5045773;28;20496;-79
2021/07/24 11:56:40;;;;;;;14.60;5.78;;;;;;;41.56;22.24;100408.69;5061044;28;20047;-85
2021/07/24 11:59:27;;;;;;;9.98;5.90;;;;;;;40.22;23.97;100414.88;5060984;28;20047;-85
2021/07/24 12:02:20;;;;;;;8.30;6.05;;;;;;;38.59;26.54;100410.94;5055313;28;20521;-83
2021/07/24 12:05:04;;;;;;;12.43;6.45;;;;;;;37.80;28.37;100417.72;5060956;28;20063;-83
2021/07/24 12:07:49;;;;;;;7.50;6.05;;;;;;;37.93;28.36;100412.34;5026223;28;20052;-84
2021/07/24 12:10:43;;;;;;;8.25;6.05;;;;;;;37.68;28.20;100407.63;5034498;28;20052;-85
2021/07/24 12:13:29;;;;;;;9.13;6.47;;;;;;;37.24;29.45;100408.94;5041308;28;20044;-84
2021/07/24 12:16:14;;;;;;;8.82;7.07;;;;;;;36.91;29.74;100397.38;5040315;28;20052;-84
2021/07/24 12:19:13;;;;;;;22.20;7.63;;;;;;;36.73;30.45;100409.09;5041283;28;20045;-85
2021/07/24 12:22:30;;;;;;;12.10;6.38;;;;;;;36.52;30.89;100414.06;5035573;28;20544;-85
2021/07/24 12:25:15;;;;;;;10.32;6.68;;;;;;;36.06;32.03;100390.69;5040775;28;20045;-87
2021/07/24 12:28:06;;;;;;;11.98;7.25;;;;;;;35.99;32.26;100397.53;5057140;28;20265;-86
2021/07/24 12:30:51;;;;;;;12.43;7.35;;;;;;;35.94;32.26;100403.94;5058343;28;20044;-85
2021/07/24 12:33:47;;;;;;;9.93;6.70;;;;;;;35.83;32.94;100389.66;5060511;28;20044;-86
2021/07/24 12:36:51;;;;;;;20.52;7.05;;;;;;;35.76;33.26;100390.09;5052440;28;20052;-86
2021/07/24 12:39:41;;;;;;;24.15;7.72;;;;;;;35.63;33.69;100383.97;5040459;28;20408;-84
2021/07/24 12:42:31;;;;;;;16.05;8.00;;;;;;;35.59;34.21;100384.22;5047134;28;20056;-85
2021/07/24 12:45:29;;;;;;;16.30;7.47;;;;;;;35.35;35.16;100378.78;5060357;28;20067;-86
2021/07/24 12:48:22;;;;;;;13.35;8.35;;;;;;;35.33;35.14;100378.47;5056294;28;20044;-85
2021/07/24 12:51:08;;;;;;;9.88;7.82;;;;;;;35.26;35.38;100367.56;5057642;28;20048;-84
2021/07/24 12:54:06;;;;;;;8.88;7.50;;;;;;;35.23;35.06;100368.56;5058278;28;20544;-84
2021/07/24 12:56:52;;;;;;;10.63;7.93;;;;;;;35.21;35.41;100367.50;5040382;28;20052;-85
2021/07/24 12:59:38;;;;;;;10.50;6.88;;;;;;;35.09;35.30;100353.22;5047104;28;20060;-84
2021/07/24 13:02:23;;;;;;;13.75;8.55;;;;;;;34.99;35.40;100351.00;5048363;28;20070;-85
2021/07/24 13:05:10;;;;;;;13.23;7.97;;;;;;;35.07;35.63;100343.66;5040066;28;20044;-86
2021/07/24 13:07:58;;;;;;;8.95;6.85;;;;;;;34.96;35.02;100340.66;5025447;28;20529;-88
2021/07/24 13:10:43;;;;;;;7.68;6.85;;;;;;;34.97;35.43;100333.75;5037966;28;20529;-87
2021/07/24 13:13:27;;;;;;;11.27;7.00;;;;;;;34.96;35.33;100329.34;5039998;28;20077;-86
2021/07/24 13:16:15;;;;;;;10.68;7.20;;;;;;;34.97;35.66;100331.69;5050351;28;20039;-87
2021/07/24 13:19:00;;;;;;;9.25;6.75;;;;;;;34.92;35.10;100325.97;5073172;28;20521;-84
2021/07/24 13:21:59;;;;;;;9.55;7.30;;;;;;;34.87;34.97;100329.50;5054671;28;20059;-88
2021/07/24 13:24:44;;;;;;;12.07;7.00;;;;;;;34.80;35.13;100327.84;5050948;28;20052;-86
2021/07/24 13:30:39;;;;;;;12.55;7.20;;;;;;;34.72;35.16;100330.31;5023043;28;20510;-87
2021/07/24 13:33:28;;;;;;;8.98;6.38;;;;;;;34.63;34.76;100315.50;5042180;28;20053;-85
2021/07/24 13:36:13;;;;;;;10.98;7.32;;;;;;;34.55;35.23;100301.00;5059299;28;20048;-84
2021/07/24 13:38:58;;;;;;;9.90;7.22;;;;;;;34.55;35.79;100305.88;5024807;28;20052;-87
2021/07/24 13:41:43;;;;;;;13.77;7.63;;;;;;;34.49;35.23;100302.97;5054352;28;20071;-87
2021/07/24 13:44:34;;;;;;;17.33;7.53;;;;;;;34.51;35.71;100305.31;5059039;28;20521;-85
2021/07/24 13:47:24;;;;;;;9.05;6.88;;;;;;;34.51;35.71;100308.13;5058765;28;20048;-87
2021/07/24 13:50:10;;;;;;;9.70;6.70;;;;;;;34.49;35.59;100302.19;5058237;28;20044;-87
2021/07/24 13:52:55;;;;;;;10.40;6.97;;;;;;;34.40;35.52;100277.66;5059227;28;20065;-85
2021/07/24 13:55:41;;;;;;;11.38;7.13;;;;;;;34.42;35.74;100277.97;5059350;28;20039;-86
2021/07/24 13:58:31;;;;;;;10.77;7.65;;;;;;;34.38;36.10;100265.31;5058794;28;20056;-86
2021/07/24 14:01:16;;;;;;;9.30;6.07;;;;;;;34.27;36.23;100263.88;5055755;28;20052;-88
2021/07/24 14:04:01;;;;;;;12.52;7.40;;;;;;;34.25;36.04;100276.91;5059078;28;20060;-87
2021/07/24 14:06:47;;;;;;;12.77;6.95;;;;;;;34.24;35.37;100278.94;5043511;28;20052;-84
2021/07/24 14:09:31;;;;;;;9.20;7.10;;;;;;;34.20;35.49;100275.56;5058227;28;20048;-84
2021/07/24 14:12:19;;;;;;;9.70;7.03;;;;;;;34.19;35.99;100259.88;5049670;28;20048;-85
2021/07/24 14:15:05;;;;;;;9.82;7.85;;;;;;;34.15;36.50;100269.78;5058630;28;20047;-87
2021/07/24 14:17:50;;;;;;;20.35;7.60;;;;;;;34.06;36.23;100275.53;5051606;28;20048;-85
2021/07/24 14:20:43;;;;;;;9.02;6.50;;;;;;;33.98;35.96;100269.53;5051452;28;20052;-84
2021/07/24 14:23:28;;;;;;;8.98;5.57;;;;;;;33.92;35.91;100268.66;5054262;28;20130;-83
2021/07/24 14:26:12;;;;;;;11.73;7.32;;;;;;;33.96;36.75;100274.09;5043058;28;20048;-87
2021/07/24 14:28:57;;;;;;;10.52;6.97;;;;;;;33.85;36.28;100275.47;5057942;28;20528;-83
2021/07/24 14:31:45;;;;;;;8.90;6.20;;;;;;;33.78;36.05;100258.16;5051011;28;20044;-84
2021/07/24 14:34:29;;;;;;;8.50;6.35;;;;;;;33.80;36.80;100272.53;5058458;28;20048;-84
2021/07/24 14:37:14;;;;;;;9.75;7.00;;;;;;;33.79;36.86;100268.94;5058252;28;20115;-84
2021/07/24 14:39:58;;;;;;;10.60;7.20;;;;;;;33.76;37.02;100267.09;5057369;28;20052;-83
2021/07/24 14:42:43;;;;;;;8.70;7.05;;;;;;;33.76;36.69;100269.13;5058057;28;20048;-86
2021/07/24 14:45:30;;;;;;;11.27;6.63;;;;;;;33.75;37.14;100281.69;5056435;28;20064;-84
2021/07/24 14:48:15;;;;;;;7.75;6.20;;;;;;;33.77;37.85;100294.03;5023424;28;20055;-85
2021/07/24 14:51:01;;;;;;;10.20;6.60;;;;;;;33.71;38.32;100289.56;5053220;28;20056;-85
2021/07/24 14:53:46;;;;;;;12.43;7.53;;;;;;;33.63;38.40;100286.28;5058335;28;20052;-85
2021/07/24 14:56:31;;;;;;;9.85;7.38;;;;;;;33.65;38.45;100283.00;5057784;28;20044;-83
2021/07/24 14:59:16;;;;;;;8.82;6.18;;;;;;;33.57;38.17;100279.78;5047787;28;20052;-83
2021/07/24 15:02:01;;;;;;;8.93;6.45;;;;;;;33.48;38.22;100283.47;5052405;28;20044;-84
2021/07/24 15:04:46;;;;;;;10.20;7.00;;;;;;;33.52;37.86;100289.69;5057424;28;20052;-85
2021/07/24 15:07:32;;;;;;;9.90;6.90;;;;;;;33.50;38.40;100285.81;5048650;28;20052;-86
2021/07/24 15:10:17;;;;;;;9.93;7.43;;;;;;;33.50;38.06;100268.88;5055811;28;20056;-84
2021/07/24 15:13:02;;;;;;;9.88;5.88;;;;;;;33.44;37.71;100268.78;5048264;28;20047;-84
2021/07/24 15:15:47;;;;;;;10.77;6.88;;;;;;;33.39;38.36;100257.38;5044036;28;20399;-86
2021/07/24 15:18:32;;;;;;;12.60;6.70;;;;;;;33.45;38.34;100269.56;5061577;28;20056;-84
2021/07/24 15:21:22;;;;;;;8.77;5.95;;;;;;;33.43;38.64;100283.34;5058216;28;20056;-85
2021/07/24 15:24:08;;;;;;;8.07;6.38;;;;;;;33.37;38.50;100276.84;5061353;28;20048;-82
2021/07/24 15:26:53;;;;;;;11.52;6.57;;;;;;;33.36;38.06;100269.63;5059872;28;20060;-84